createdAt,value
2022-11-13T00:02:48.915Z,10.17
2022-11-13T00:06:11.048Z,8.73
2022-11-13T00:09:30.877Z,9.20
2022-11-13T00:12:50.787Z,9.00
2022-11-13T00:16:13.215Z,9.40
2022-11-13T00:19:33.238Z,9.20
2022-11-13T00:22:53.188Z,9.27
2022-11-13T00:26:23.829Z,9.37
2022-11-13T00:29:43.797Z,8.83
2022-11-13T00:33:03.815Z,7.93
2022-11-13T00:36:26.681Z,7.33
2022-11-13T00:39:46.637Z,7.20
2022-11-13T00:43:06.565Z,7.90
2022-11-13T00:46:26.631Z,7.67
2022-11-13T00:49:46.708Z,7.10
2022-11-13T00:53:06.890Z,7.00
2022-11-13T00:56:27.123Z,7.70
2022-11-13T00:59:46.918Z,6.90
2022-11-13T01:03:07.031Z,8.90
2022-11-13T01:06:28.139Z,8.40
2022-11-13T01:09:51.317Z,8.97
2022-11-13T01:13:12.408Z,9.17
2022-11-13T01:16:32.410Z,9.23
2022-11-13T01:19:52.325Z,9.57
2022-11-13T01:23:12.346Z,9.53
2022-11-13T01:26:32.243Z,9.53
2022-11-13T01:29:52.273Z,9.27
2022-11-13T01:33:12.374Z,9.50
2022-11-13T01:36:32.205Z,9.53
2022-11-13T01:39:52.247Z,10.00
2022-11-13T01:43:34.032Z,11.13
2022-11-13T01:46:55.829Z,12.83
2022-11-13T01:50:15.975Z,12.47
2022-11-13T01:53:36.104Z,12.13
2022-11-13T01:56:56.612Z,12.63
2022-11-13T02:00:16.421Z,12.70
2022-11-13T02:03:36.906Z,12.33
2022-11-13T02:07:03.647Z,11.27
2022-11-13T02:10:23.688Z,11.97
2022-11-13T02:13:44.265Z,14.30
2022-11-13T02:17:08.488Z,13.70
2022-11-13T02:20:50.276Z,13.57
2022-11-13T02:24:16.707Z,13.60
2022-11-13T02:27:44.890Z,13.57
2022-11-13T02:31:13.010Z,13.60
2022-11-13T02:34:33.241Z,13.93
2022-11-13T02:37:56.232Z,13.60
2022-11-13T02:41:16.399Z,13.73
2022-11-13T02:44:36.252Z,14.40
2022-11-13T02:47:56.069Z,13.57
2022-11-13T02:51:16.159Z,13.13
2022-11-13T02:54:36.119Z,12.53
2022-11-13T02:57:56.413Z,13.53
2022-11-13T03:01:16.397Z,13.47
2022-11-13T03:05:09.834Z,13.63
2022-11-13T03:08:17.226Z,14.33
2022-11-13T03:11:37.080Z,14.47
2022-11-13T03:14:57.020Z,14.70
2022-11-13T03:18:16.986Z,15.03
2022-11-13T03:21:36.781Z,14.97
2022-11-13T03:24:57.275Z,14.53
2022-11-13T03:28:17.336Z,15.73
2022-11-13T03:31:37.303Z,15.33
2022-11-13T03:34:57.489Z,14.60
2022-11-13T03:38:17.719Z,14.47
2022-11-13T03:41:37.739Z,15.23
2022-11-13T03:44:57.633Z,14.57
2022-11-13T03:48:17.856Z,13.77
2022-11-13T03:51:37.684Z,13.83
2022-11-13T03:54:57.499Z,14.23
2022-11-13T03:58:17.385Z,14.10
2022-11-13T04:01:37.488Z,13.63
2022-11-13T04:04:57.226Z,12.90
2022-11-13T04:08:18.294Z,14.30
2022-11-13T04:11:38.221Z,16.33
2022-11-13T04:14:57.935Z,15.57
2022-11-13T04:18:17.728Z,14.93
2022-11-13T04:21:37.480Z,15.80
2022-11-13T04:24:57.357Z,15.17
2022-11-13T04:28:17.188Z,14.50
2022-11-13T04:31:36.858Z,14.43
2022-11-13T04:34:56.574Z,13.43
2022-11-13T04:38:16.508Z,12.20
2022-11-13T04:41:55.690Z,11.83
2022-11-13T04:45:22.311Z,13.00
2022-11-13T04:48:42.365Z,12.50
2022-11-13T04:52:02.214Z,11.50
2022-11-13T04:55:21.942Z,10.67
2022-11-13T04:58:41.714Z,10.60
2022-11-13T05:02:01.958Z,10.13
2022-11-13T05:05:21.784Z,9.53
2022-11-13T05:08:41.728Z,10.20
2022-11-13T05:12:01.461Z,9.20
2022-11-13T05:15:21.283Z,8.87
2022-11-13T05:18:41.377Z,8.90
2022-11-13T05:22:01.669Z,9.10
2022-11-13T05:25:21.796Z,7.97
2022-11-13T05:28:41.640Z,8.33
2022-11-13T05:32:01.447Z,7.97
2022-11-13T05:35:21.189Z,8.40
2022-11-13T05:38:41.768Z,8.47
2022-11-13T05:42:01.871Z,8.50
2022-11-13T05:45:22.750Z,8.17
2022-11-13T05:48:43.190Z,8.20
2022-11-13T05:52:03.178Z,8.17
2022-11-13T05:55:23.584Z,7.83
2022-11-13T05:58:44.236Z,7.43
2022-11-13T06:02:04.506Z,8.00
2022-11-13T06:05:24.363Z,7.43
2022-11-13T06:08:45.227Z,7.57
2022-11-13T06:12:05.296Z,7.23
2022-11-13T06:15:25.438Z,7.77
2022-11-13T06:18:46.161Z,7.60
2022-11-13T06:22:06.408Z,6.90
2022-11-13T06:25:27.491Z,7.03
2022-11-13T06:28:48.231Z,6.87
2022-11-13T06:32:08.432Z,7.33
2022-11-13T06:35:28.424Z,7.23
2022-11-13T06:38:49.779Z,7.10
2022-11-13T06:42:10.020Z,7.17
2022-11-13T06:45:29.951Z,6.73
2022-11-13T06:48:50.362Z,7.63
2022-11-13T06:52:10.128Z,8.20
2022-11-13T06:55:30.035Z,8.37
2022-11-13T06:58:49.997Z,8.23
2022-11-13T07:02:11.631Z,8.30
2022-11-13T07:05:31.395Z,7.60
2022-11-13T07:08:51.700Z,7.93
2022-11-13T07:12:11.736Z,8.30
2022-11-13T07:15:39.240Z,7.90
2022-11-13T07:18:59.097Z,8.20
2022-11-13T07:22:18.913Z,7.67
2022-11-13T07:25:38.748Z,8.27
2022-11-13T07:28:58.686Z,7.57
2022-11-13T07:32:18.781Z,8.30
2022-11-13T07:35:38.464Z,7.53
2022-11-13T07:39:00.358Z,8.07
2022-11-13T07:42:20.369Z,8.37
2022-11-13T07:45:40.314Z,8.60
2022-11-13T07:49:00.037Z,7.40
2022-11-13T07:52:19.872Z,8.77
2022-11-13T07:55:39.903Z,8.30
2022-11-13T07:58:59.799Z,8.10
2022-11-13T08:02:25.101Z,7.93
2022-11-13T08:05:46.709Z,7.50
2022-11-13T08:09:06.568Z,8.13
2022-11-13T08:12:26.697Z,8.27
2022-11-13T08:15:46.547Z,8.70
2022-11-13T08:19:06.415Z,8.13
2022-11-13T08:22:26.625Z,9.00
2022-11-13T08:25:46.744Z,8.67
2022-11-13T08:29:06.877Z,8.60
2022-11-13T08:32:26.954Z,8.83
2022-11-13T08:35:58.741Z,9.20
2022-11-13T08:39:18.828Z,10.80
2022-11-13T08:42:38.499Z,9.83
2022-11-13T08:45:58.496Z,9.90
2022-11-13T08:49:18.712Z,9.80
2022-11-13T08:52:38.681Z,9.80
2022-11-13T08:56:02.601Z,9.23
2022-11-13T08:59:27.043Z,9.37
2022-11-13T09:02:46.982Z,9.40
2022-11-13T09:06:07.834Z,9.87
2022-11-13T09:09:27.625Z,9.93
2022-11-13T09:12:47.530Z,9.90
2022-11-13T09:16:07.457Z,11.10
2022-11-13T09:19:28.025Z,10.83
2022-11-13T09:22:47.882Z,11.03
2022-11-13T09:26:07.692Z,11.10
2022-11-13T09:29:28.583Z,11.13
2022-11-13T09:32:53.950Z,10.40
2022-11-13T09:36:15.536Z,10.80
2022-11-13T09:39:35.687Z,9.67
2022-11-13T09:42:55.927Z,9.93
2022-11-13T09:46:30.492Z,10.67
2022-11-13T09:50:13.518Z,9.50
2022-11-13T09:53:37.106Z,9.73
2022-11-13T09:57:15.402Z,10.53
2022-11-13T10:00:36.341Z,11.13
2022-11-13T10:04:03.467Z,10.37
2022-11-13T10:08:06.752Z,10.53
2022-11-13T10:11:46.099Z,10.00
2022-11-13T10:15:07.073Z,10.40
2022-11-13T10:18:33.383Z,11.00
2022-11-13T10:22:26.020Z,11.57
2022-11-13T10:25:42.268Z,12.73
2022-11-13T10:29:29.519Z,13.10
2022-11-13T10:32:50.646Z,12.27
2022-11-13T10:36:32.780Z,12.93
2022-11-13T10:39:52.656Z,12.63
2022-11-13T10:43:24.419Z,13.30
2022-11-13T10:46:44.469Z,13.20
2022-11-13T10:50:31.236Z,13.27
2022-11-13T10:53:52.135Z,12.73
2022-11-13T10:57:30.151Z,12.13
2022-11-13T11:00:50.495Z,12.10
2022-11-13T11:04:24.449Z,11.50
2022-11-13T11:07:44.482Z,11.23
2022-11-13T11:11:35.365Z,12.10
2022-11-13T11:14:58.863Z,11.40
2022-11-13T11:18:30.615Z,12.10
2022-11-13T11:21:55.515Z,12.00
2022-11-13T11:25:48.647Z,10.57
2022-11-13T11:29:18.410Z,11.93
2022-11-13T11:33:04.864Z,11.20
2022-11-13T11:36:41.826Z,11.27
2022-11-13T11:40:17.204Z,11.47
2022-11-13T11:44:01.997Z,10.83
2022-11-13T11:47:22.138Z,10.77
2022-11-13T11:50:57.669Z,11.17
2022-11-13T11:54:43.725Z,11.53
2022-11-13T11:58:18.657Z,12.43
2022-11-13T12:02:03.313Z,11.93
2022-11-13T12:05:57.297Z,11.20
2022-11-13T12:09:27.760Z,11.03
2022-11-13T12:13:31.251Z,12.43
2022-11-13T12:17:00.061Z,12.10
2022-11-13T12:20:26.103Z,12.23
2022-11-13T12:24:04.658Z,12.23
2022-11-13T12:27:29.474Z,11.70
2022-11-13T12:30:52.375Z,11.70
2022-11-13T12:34:54.353Z,12.43
2022-11-13T12:38:21.315Z,12.30
2022-11-13T12:42:01.252Z,13.17
2022-11-13T12:45:26.292Z,11.80
2022-11-13T12:48:47.775Z,13.73
2022-11-13T12:52:20.676Z,13.70
2022-11-13T12:55:41.331Z,12.53
2022-11-13T12:59:31.580Z,11.80
2022-11-13T13:02:57.691Z,13.17
2022-11-13T13:06:33.385Z,12.43
2022-11-13T13:10:01.271Z,12.47
2022-11-13T13:13:48.083Z,12.87
2022-11-13T13:17:14.038Z,13.50
2022-11-13T13:20:37.612Z,12.30
2022-11-13T13:24:07.332Z,12.40
2022-11-13T13:27:29.353Z,13.43
2022-11-13T13:31:11.425Z,13.33
2022-11-13T13:34:55.698Z,12.67
2022-11-13T13:38:26.723Z,12.27
2022-11-13T13:42:05.576Z,11.03
2022-11-13T13:45:49.872Z,10.93
2022-11-13T13:49:16.969Z,10.63
2022-11-13T13:52:37.838Z,10.60
2022-11-13T13:55:58.991Z,11.87
2022-11-13T13:59:29.993Z,12.67
2022-11-13T14:02:52.907Z,11.57
2022-11-13T14:06:22.444Z,12.20
2022-11-13T14:09:42.345Z,12.87
2022-11-13T14:13:03.091Z,12.13
2022-11-13T14:16:22.951Z,12.80
2022-11-13T14:19:49.508Z,12.67
2022-11-13T14:23:13.780Z,13.33
2022-11-13T14:26:34.150Z,13.97
2022-11-13T14:30:01.608Z,15.50
2022-11-13T14:33:31.561Z,16.27
2022-11-13T14:36:51.686Z,16.30
2022-11-13T14:40:21.271Z,13.60
2022-11-13T14:43:49.566Z,12.47
2022-11-13T14:47:28.605Z,12.67
2022-11-13T14:51:03.938Z,12.27
2022-11-13T14:55:13.099Z,12.90
2022-11-13T14:58:36.638Z,12.03
2022-11-13T15:01:57.986Z,13.40
2022-11-13T15:05:18.025Z,12.60
2022-11-13T15:08:38.844Z,13.33
2022-11-13T15:11:58.601Z,11.97
2022-11-13T15:15:22.721Z,13.87
2022-11-13T15:18:48.492Z,13.53
2022-11-13T15:22:26.531Z,15.23
2022-11-13T15:25:47.443Z,12.70
2022-11-13T15:29:07.596Z,13.50
2022-11-13T15:32:28.904Z,13.03
2022-11-13T15:35:49.105Z,14.97
2022-11-13T15:39:12.697Z,16.77
2022-11-13T15:42:38.785Z,15.80
2022-11-13T15:45:58.888Z,17.47
2022-11-13T15:49:18.796Z,17.17
2022-11-13T15:52:42.143Z,16.37
2022-11-13T15:56:05.003Z,16.00
2022-11-13T15:59:25.020Z,16.33
2022-11-13T16:02:45.619Z,15.90
2022-11-13T16:06:11.545Z,15.60
2022-11-13T16:09:31.437Z,16.57
2022-11-13T16:12:52.389Z,16.53
2022-11-13T16:16:23.756Z,17.87
2022-11-13T16:19:44.042Z,19.33
2022-11-13T16:23:04.118Z,19.37
2022-11-13T16:26:25.896Z,20.63
2022-11-13T16:29:45.707Z,22.83
2022-11-13T16:33:09.129Z,20.60
2022-11-13T16:36:29.002Z,17.77
2022-11-13T16:39:49.649Z,17.00
2022-11-13T16:43:10.736Z,15.50
2022-11-13T16:46:33.501Z,15.87
2022-11-13T16:49:53.574Z,14.40
2022-11-13T16:53:13.564Z,14.53
2022-11-13T16:56:33.530Z,14.03
2022-11-13T16:59:53.345Z,14.17
2022-11-13T17:03:13.195Z,13.57
2022-11-13T17:06:34.987Z,13.73
2022-11-13T17:10:16.583Z,12.80
2022-11-13T17:13:35.032Z,12.70
2022-11-13T17:16:55.198Z,12.73
2022-11-13T17:20:18.168Z,13.17
2022-11-13T17:23:38.169Z,13.20
2022-11-13T17:26:58.297Z,13.00
2022-11-13T17:30:18.390Z,12.70
2022-11-13T17:33:40.155Z,11.90
2022-11-13T17:37:01.441Z,11.90
2022-11-13T17:40:21.540Z,12.47
2022-11-13T17:43:42.156Z,12.40
2022-11-13T17:47:02.180Z,12.67
2022-11-13T17:50:22.231Z,12.10
2022-11-13T17:53:42.572Z,12.03
2022-11-13T17:57:02.652Z,12.00
2022-11-13T18:00:22.802Z,20.43
2022-11-13T18:03:43.260Z,23.27
2022-11-13T18:07:03.438Z,20.50
2022-11-13T18:10:23.758Z,16.50
2022-11-13T18:13:44.318Z,13.10
2022-11-13T18:17:04.487Z,13.40
2022-11-13T18:20:24.525Z,12.40
2022-11-13T18:23:44.908Z,12.37
2022-11-13T18:27:07.705Z,11.83
2022-11-13T18:30:27.689Z,13.07
2022-11-13T18:33:47.660Z,13.20
2022-11-13T18:37:07.813Z,11.33
2022-11-13T18:40:27.703Z,11.10
2022-11-13T18:43:49.820Z,11.47
2022-11-13T18:47:09.637Z,11.03
2022-11-13T18:50:29.511Z,11.93
2022-11-13T18:53:50.771Z,12.27
2022-11-13T18:57:10.670Z,11.87
2022-11-13T19:00:30.843Z,11.50
2022-11-13T19:04:21.052Z,13.43
2022-11-13T19:07:32.448Z,12.80
2022-11-13T19:10:52.643Z,14.10
2022-11-13T19:14:17.842Z,13.07
2022-11-13T19:17:37.958Z,14.03
2022-11-13T19:20:57.928Z,14.73
2022-11-13T19:24:17.818Z,13.80
2022-11-13T19:27:37.799Z,13.47
2022-11-13T19:30:57.917Z,14.03
2022-11-13T19:34:18.344Z,12.87
2022-11-13T19:37:38.571Z,14.40
2022-11-13T19:40:58.568Z,16.20
2022-11-13T19:44:18.724Z,15.57
2022-11-13T19:47:38.568Z,15.90
2022-11-13T19:51:06.290Z,16.07
2022-11-13T19:54:26.549Z,16.40
2022-11-13T19:57:46.702Z,16.80
2022-11-13T20:01:15.960Z,15.30
2022-11-13T20:04:35.809Z,13.77
2022-11-13T20:07:58.303Z,14.67
2022-11-13T20:11:18.576Z,14.27
2022-11-13T20:14:38.858Z,15.03
2022-11-13T20:17:58.700Z,16.87
2022-11-13T20:21:26.343Z,17.03
2022-11-13T20:24:46.270Z,16.87
2022-11-13T20:28:06.143Z,15.90
2022-11-13T20:31:27.751Z,15.13
2022-11-13T20:34:47.798Z,13.37
2022-11-13T20:38:07.912Z,12.70
2022-11-13T20:41:28.283Z,12.83
2022-11-13T20:44:48.696Z,12.00
2022-11-13T20:48:08.897Z,10.47
2022-11-13T20:51:29.019Z,11.00
2022-11-13T20:54:49.193Z,10.83
2022-11-13T20:58:09.241Z,10.53
2022-11-13T21:01:30.200Z,11.03
2022-11-13T21:04:50.643Z,11.23
2022-11-13T21:08:11.099Z,10.97
2022-11-13T21:11:31.286Z,10.33
2022-11-13T21:14:51.979Z,10.63
2022-11-13T21:18:12.013Z,11.30
2022-11-13T21:21:32.356Z,11.17
2022-11-13T21:24:52.412Z,10.10
2022-11-13T21:28:12.414Z,9.70
2022-11-13T21:31:32.786Z,11.10
2022-11-13T21:34:58.847Z,11.10
2022-11-13T21:38:19.141Z,11.00
2022-11-13T21:41:39.092Z,11.10
2022-11-13T21:44:59.029Z,11.53
2022-11-13T21:48:19.147Z,11.70
2022-11-13T21:51:41.325Z,10.93
2022-11-13T21:55:01.246Z,10.27
2022-11-13T21:58:32.134Z,10.80
2022-11-13T22:01:52.252Z,11.13
2022-11-13T22:05:12.666Z,11.67
2022-11-13T22:08:32.613Z,12.20
2022-11-13T22:11:53.000Z,11.80
2022-11-13T22:15:13.179Z,12.33
2022-11-13T22:18:33.878Z,13.17
2022-11-13T22:21:54.228Z,13.53
2022-11-13T22:25:14.460Z,12.97
2022-11-13T22:28:36.434Z,13.40
2022-11-13T22:31:56.676Z,14.10
2022-11-13T22:35:16.493Z,13.40
2022-11-13T22:38:37.806Z,13.73
2022-11-13T22:41:57.925Z,14.43
2022-11-13T22:45:23.713Z,14.30
2022-11-13T22:48:46.108Z,15.07
2022-11-13T22:52:05.905Z,15.27
2022-11-13T22:55:25.811Z,15.03
2022-11-13T22:58:46.649Z,14.40
2022-11-13T23:02:06.498Z,15.53
2022-11-13T23:05:26.395Z,15.87
2022-11-13T23:08:46.655Z,15.43
2022-11-13T23:12:06.459Z,15.10
2022-11-13T23:15:26.364Z,15.00
2022-11-13T23:18:47.071Z,15.07
2022-11-13T23:22:06.977Z,15.50
2022-11-13T23:25:26.807Z,15.37
2022-11-13T23:28:46.844Z,14.27
2022-11-13T23:32:06.992Z,14.03
2022-11-13T23:35:27.072Z,14.23
2022-11-13T23:38:47.434Z,12.67
2022-11-13T23:42:07.563Z,12.93
2022-11-13T23:45:27.540Z,13.87
2022-11-13T23:48:47.707Z,13.70
2022-11-13T23:52:07.755Z,14.20
2022-11-13T23:55:28.190Z,13.07
2022-11-13T23:58:48.432Z,14.40
